createdAt,value
2023-02-12T00:00:45.430Z,33.80
2023-02-12T00:03:32.828Z,36.30
2023-02-12T00:06:20.522Z,45.20
2023-02-12T00:09:08.153Z,43.55
2023-02-12T00:11:55.398Z,43.87
2023-02-12T00:14:43.259Z,39.08
2023-02-12T00:17:30.861Z,46.25
2023-02-12T00:20:18.286Z,42.85
2023-02-12T00:23:06.421Z,38.45
2023-02-12T00:25:54.141Z,42.83
2023-02-12T00:28:42.640Z,43.90
2023-02-12T00:31:32.078Z,42.90
2023-02-12T00:34:19.447Z,40.90
2023-02-12T00:37:08.202Z,40.70
2023-02-12T00:39:55.555Z,43.20
2023-02-12T00:42:42.822Z,44.53
2023-02-12T00:45:30.409Z,47.48
2023-02-12T00:48:17.946Z,44.73
2023-02-12T00:51:05.989Z,42.50
2023-02-12T00:53:53.447Z,42.73
2023-02-12T00:56:40.929Z,46.10
2023-02-12T00:59:28.892Z,42.13
2023-02-12T01:02:16.461Z,42.43
2023-02-12T01:05:03.749Z,44.00
2023-02-12T01:07:54.955Z,41.00
2023-02-12T01:10:43.381Z,43.30
2023-02-12T01:13:32.231Z,45.70
2023-02-12T01:16:23.162Z,47.43
2023-02-12T01:19:15.467Z,45.48
2023-02-12T01:22:02.809Z,39.95
2023-02-12T01:24:49.923Z,49.73
2023-02-12T01:27:37.506Z,43.95
2023-02-12T01:30:24.860Z,42.48
2023-02-12T01:33:18.038Z,38.90
2023-02-12T01:36:05.177Z,41.48
2023-02-12T01:38:52.626Z,38.90
2023-02-12T01:41:42.915Z,40.03
2023-02-12T01:44:32.621Z,49.85
2023-02-12T01:47:20.093Z,37.40
2023-02-12T01:50:10.347Z,34.92
2023-02-12T01:52:59.962Z,35.52
2023-02-12T01:55:49.771Z,41.28
2023-02-12T01:58:40.354Z,44.25
2023-02-12T02:01:30.329Z,41.98
2023-02-12T02:04:20.399Z,40.63
2023-02-12T02:07:09.045Z,43.28
2023-02-12T02:09:57.797Z,40.35
2023-02-12T02:13:02.879Z,39.27
2023-02-12T02:15:53.870Z,35.38
2023-02-12T02:18:50.057Z,46.58
2023-02-12T02:21:49.443Z,42.27
2023-02-12T02:25:10.257Z,42.98
2023-02-12T02:28:03.498Z,39.10
2023-02-12T02:30:59.867Z,38.08
2023-02-12T02:34:07.723Z,37.77
2023-02-12T02:37:14.905Z,52.93
2023-02-12T02:40:14.608Z,46.60
2023-02-12T02:43:13.458Z,46.15
2023-02-12T02:46:23.281Z,45.33
2023-02-12T02:49:13.852Z,47.83
2023-02-12T02:52:04.421Z,44.42
2023-02-12T02:54:58.076Z,43.98
2023-02-12T02:57:51.055Z,43.05
2023-02-12T03:00:41.416Z,50.00
2023-02-12T03:03:40.611Z,44.35
2023-02-12T03:06:38.674Z,44.18
2023-02-12T03:09:31.685Z,46.63
2023-02-12T03:12:24.769Z,46.02
2023-02-12T03:15:15.333Z,46.15
2023-02-12T03:18:05.980Z,45.38
2023-02-12T03:20:56.565Z,43.58
2023-02-12T03:23:46.718Z,46.30
2023-02-12T03:26:43.114Z,43.68
2023-02-12T03:29:30.524Z,47.80
2023-02-12T03:32:36.052Z,43.17
2023-02-12T03:35:26.774Z,46.00
2023-02-12T03:38:41.645Z,48.05
2023-02-12T03:41:35.767Z,40.10
2023-02-12T03:44:35.474Z,45.15
2023-02-12T03:47:31.862Z,39.23
2023-02-12T03:50:25.373Z,45.88
2023-02-12T03:53:12.656Z,47.20
2023-02-12T03:56:09.187Z,45.10
2023-02-12T03:58:56.567Z,42.08
2023-02-12T04:01:44.379Z,42.13
2023-02-12T04:04:32.511Z,42.20
2023-02-12T04:07:19.680Z,39.80
2023-02-12T04:10:07.687Z,45.10
2023-02-12T04:12:58.237Z,49.10
2023-02-12T04:15:51.543Z,50.83
2023-02-12T04:18:49.411Z,43.50
2023-02-12T04:22:01.121Z,43.75
2023-02-12T04:24:57.213Z,44.93
2023-02-12T04:27:57.233Z,49.65
2023-02-12T04:31:23.032Z,46.35
2023-02-12T04:34:13.488Z,45.85
2023-02-12T04:37:06.662Z,44.75
2023-02-12T04:39:56.001Z,45.70
2023-02-12T04:42:49.579Z,45.60
2023-02-12T04:45:38.158Z,43.70
2023-02-12T04:48:25.738Z,49.00
2023-02-12T04:51:13.005Z,46.08
2023-02-12T04:54:00.575Z,47.65
2023-02-12T04:56:48.335Z,41.55
2023-02-12T04:59:35.655Z,45.43
2023-02-12T05:02:23.697Z,52.13
2023-02-12T05:05:11.217Z,53.40
2023-02-12T05:07:58.864Z,52.45
2023-02-12T05:10:46.316Z,48.28
2023-02-12T05:13:34.199Z,38.92
2023-02-12T05:16:22.504Z,38.48
2023-02-12T05:19:09.788Z,40.40
2023-02-12T05:21:57.073Z,40.35
2023-02-12T05:24:44.703Z,38.65
2023-02-12T05:27:32.122Z,38.13
2023-02-12T05:30:21.043Z,44.15
2023-02-12T05:33:08.189Z,36.65
2023-02-12T05:35:56.113Z,33.20
2023-02-12T05:38:43.332Z,34.10
2023-02-12T05:41:32.595Z,41.02
2023-02-12T05:44:19.882Z,43.05
2023-02-12T05:47:08.705Z,36.48
2023-02-12T05:49:56.019Z,40.92
2023-02-12T05:52:44.708Z,43.83
2023-02-12T05:55:31.951Z,41.15
2023-02-12T05:58:21.800Z,38.48
2023-02-12T06:01:15.036Z,35.85
2023-02-12T06:04:04.626Z,35.50
2023-02-12T06:06:54.005Z,47.27
2023-02-12T06:09:41.179Z,45.63
2023-02-12T06:12:28.533Z,39.78
2023-02-12T06:15:16.118Z,40.25
2023-02-12T06:18:03.383Z,33.50
2023-02-12T06:20:50.584Z,35.23
2023-02-12T06:23:39.681Z,40.35
2023-02-12T06:26:27.105Z,46.90
2023-02-12T06:29:14.729Z,54.50
2023-02-12T06:32:02.350Z,46.60
2023-02-12T06:34:49.878Z,41.02
2023-02-12T06:37:38.215Z,45.25
2023-02-12T06:40:25.830Z,36.83
2023-02-12T06:43:13.155Z,42.88
2023-02-12T06:46:04.314Z,41.75
2023-02-12T06:48:56.876Z,41.18
2023-02-12T06:51:44.713Z,36.63
2023-02-12T06:54:32.289Z,40.63
2023-02-12T06:57:19.858Z,41.20
2023-02-12T07:00:08.589Z,48.15
2023-02-12T07:02:58.888Z,38.42
2023-02-12T07:05:48.111Z,35.10
2023-02-12T07:08:35.479Z,29.50
2023-02-12T07:11:31.486Z,33.33
2023-02-12T07:14:19.279Z,28.77
2023-02-12T07:17:08.673Z,32.93
2023-02-12T07:19:55.844Z,36.98
2023-02-12T07:22:44.559Z,42.75
2023-02-12T07:25:31.726Z,45.10
2023-02-12T07:28:19.116Z,38.90
2023-02-12T07:31:15.525Z,51.48
2023-02-12T07:34:03.376Z,44.05
2023-02-12T07:36:50.922Z,49.20
2023-02-12T07:39:38.518Z,52.20
2023-02-12T07:42:25.674Z,48.65
2023-02-12T07:45:14.150Z,51.18
2023-02-12T07:48:01.443Z,51.48
2023-02-12T07:50:48.911Z,56.42
2023-02-12T07:53:37.056Z,50.92
2023-02-12T07:56:28.387Z,53.30
2023-02-12T07:59:17.872Z,59.40
2023-02-12T08:02:08.262Z,57.78
2023-02-12T08:04:59.285Z,56.15
2023-02-12T08:07:46.796Z,58.20
2023-02-12T08:10:34.003Z,48.50
2023-02-12T08:13:21.595Z,42.40
2023-02-12T08:16:11.940Z,44.50
2023-02-12T08:19:14.338Z,45.35
2023-02-12T08:21:53.184Z,59.80
2023-02-12T08:24:40.665Z,64.12
2023-02-12T08:27:27.838Z,67.92
2023-02-12T08:30:15.627Z,82.15
2023-02-12T08:33:02.823Z,77.58
2023-02-12T08:35:52.161Z,92.22
2023-02-12T08:38:40.510Z,79.60
2023-02-12T08:41:29.962Z,82.97
2023-02-12T08:44:18.096Z,88.47
2023-02-12T08:47:07.214Z,84.35
2023-02-12T08:49:54.614Z,87.20
2023-02-12T08:52:43.968Z,75.65
2023-02-12T08:55:31.565Z,73.37
2023-02-12T08:58:19.199Z,76.30
2023-02-12T09:01:12.342Z,73.87
2023-02-12T09:04:00.516Z,71.17
2023-02-12T09:06:51.516Z,72.30
2023-02-12T09:09:40.676Z,76.05
2023-02-12T09:12:27.979Z,73.12
2023-02-12T09:15:15.388Z,77.22
2023-02-12T09:18:04.078Z,84.65
2023-02-12T09:20:51.256Z,84.97
2023-02-12T09:23:39.693Z,89.58
2023-02-12T09:26:27.084Z,85.75
2023-02-12T09:29:14.459Z,81.85
2023-02-12T09:32:03.597Z,70.75
2023-02-12T09:34:50.782Z,82.53
2023-02-12T09:37:38.380Z,73.15
2023-02-12T09:40:46.752Z,76.25
2023-02-12T09:43:46.007Z,79.00
2023-02-12T09:46:45.735Z,76.85
2023-02-12T09:49:53.510Z,74.07
2023-02-12T09:52:41.914Z,74.05
2023-02-12T09:55:32.697Z,78.15
2023-02-12T09:58:25.597Z,77.45
2023-02-12T10:01:18.176Z,73.87
2023-02-12T10:04:07.027Z,78.65
2023-02-12T10:06:57.378Z,71.97
2023-02-12T10:09:57.019Z,70.47
2023-02-12T10:12:59.618Z,68.15
2023-02-12T10:15:59.755Z,73.42
2023-02-12T10:19:08.510Z,75.45
2023-02-12T10:22:08.165Z,68.65
2023-02-12T10:25:01.698Z,80.65
2023-02-12T10:27:51.797Z,74.87
2023-02-12T10:30:47.979Z,74.75
2023-02-12T10:33:48.793Z,73.37
2023-02-12T10:36:48.874Z,79.80
2023-02-12T10:39:39.333Z,72.85
2023-02-12T10:42:41.492Z,78.72
2023-02-12T10:45:35.482Z,79.50
2023-02-12T10:48:29.089Z,71.90
2023-02-12T10:51:31.458Z,67.92
2023-02-12T10:54:40.984Z,70.67
2023-02-12T10:57:32.651Z,75.87
2023-02-12T11:00:35.168Z,78.78
2023-02-12T11:03:25.582Z,81.63
2023-02-12T11:06:18.963Z,69.75
2023-02-12T11:09:06.391Z,75.08
2023-02-12T11:11:54.179Z,79.80
2023-02-12T11:14:43.414Z,69.32
2023-02-12T11:17:42.861Z,75.87
2023-02-12T11:20:43.517Z,76.20
2023-02-12T11:23:37.838Z,73.02
2023-02-12T11:26:28.726Z,78.02
2023-02-12T11:29:24.164Z,70.17
2023-02-12T11:32:20.447Z,68.52
2023-02-12T11:35:29.493Z,69.92
2023-02-12T11:38:23.760Z,64.45
2023-02-12T11:41:29.817Z,64.20
2023-02-12T11:44:23.383Z,64.12
2023-02-12T11:47:13.983Z,63.23
2023-02-12T11:50:07.289Z,64.53
2023-02-12T11:52:57.285Z,55.60
2023-02-12T11:55:48.530Z,58.00
2023-02-12T11:58:35.967Z,63.20
2023-02-12T12:01:32.240Z,60.10
2023-02-12T12:04:22.155Z,64.53
2023-02-12T12:07:21.442Z,57.70
2023-02-12T12:10:20.875Z,61.18
2023-02-12T12:13:11.224Z,67.30
2023-02-12T12:16:31.846Z,66.02
2023-02-12T12:19:49.128Z,69.35
2023-02-12T12:22:55.814Z,63.00
2023-02-12T12:25:56.024Z,60.55
2023-02-12T12:28:47.061Z,56.02
2023-02-12T12:31:37.924Z,61.08
2023-02-12T12:34:27.875Z,66.40
2023-02-12T12:37:21.074Z,59.80
2023-02-12T12:40:17.309Z,58.20
2023-02-12T12:43:16.862Z,61.30
2023-02-12T12:46:07.172Z,60.45
2023-02-12T12:49:07.823Z,54.35
2023-02-12T12:52:19.308Z,50.95
2023-02-12T12:55:24.912Z,44.05
2023-02-12T12:58:32.237Z,41.75
2023-02-12T13:01:40.648Z,37.88
2023-02-12T13:04:49.304Z,42.70
2023-02-12T13:08:00.406Z,47.85
2023-02-12T13:10:53.484Z,44.83
2023-02-12T13:13:46.904Z,46.60
2023-02-12T13:16:43.125Z,37.95
2023-02-12T13:19:51.696Z,23.27
2023-02-12T13:23:00.498Z,29.30
2023-02-12T13:25:59.289Z,26.10
2023-02-12T13:28:49.639Z,21.75
2023-02-12T13:31:40.003Z,25.85
2023-02-12T13:34:30.572Z,23.25
2023-02-12T13:37:20.898Z,28.87
2023-02-12T13:40:11.308Z,22.40
2023-02-12T13:43:23.174Z,29.50
2023-02-12T13:46:30.298Z,23.65
2023-02-12T13:49:42.043Z,12.40
2023-02-12T13:52:32.376Z,26.02
2023-02-12T13:55:25.805Z,30.70
2023-02-12T13:58:38.693Z,36.40
2023-02-12T14:01:47.930Z,36.28
2023-02-12T14:04:37.819Z,32.25
2023-02-12T14:07:26.636Z,34.08
2023-02-12T14:10:22.675Z,34.30
2023-02-12T14:13:28.240Z,35.60
2023-02-12T14:16:31.141Z,36.03
2023-02-12T14:19:41.228Z,29.67
2023-02-12T14:22:31.534Z,30.80
2023-02-12T14:25:46.256Z,30.43
2023-02-12T14:28:36.769Z,32.13
2023-02-12T14:31:31.377Z,27.90
2023-02-12T14:34:24.696Z,27.62
2023-02-12T14:37:19.549Z,27.98
2023-02-12T14:40:37.435Z,26.20
2023-02-12T14:43:56.681Z,29.00
2023-02-12T14:46:49.715Z,26.10
2023-02-12T14:49:43.340Z,24.52
2023-02-12T14:52:33.762Z,21.07
2023-02-12T14:55:27.225Z,29.92
2023-02-12T14:58:24.476Z,28.50
2023-02-12T15:04:05.987Z,31.50
2023-02-12T15:07:01.939Z,26.00
2023-02-12T15:09:55.396Z,26.82
2023-02-12T15:12:48.580Z,29.27
2023-02-12T15:15:41.779Z,28.00
2023-02-12T15:18:53.195Z,33.15
2023-02-12T15:21:41.447Z,29.67
2023-02-12T15:24:29.219Z,31.82
2023-02-12T15:27:18.032Z,28.07
2023-02-12T15:30:07.297Z,26.97
2023-02-12T15:32:57.290Z,21.60
2023-02-12T15:35:46.359Z,21.25
2023-02-12T15:38:41.364Z,19.62
2023-02-12T15:41:40.396Z,18.85
2023-02-12T15:44:30.949Z,19.35
2023-02-12T15:47:20.866Z,22.32
2023-02-12T15:50:10.238Z,20.37
2023-02-12T15:52:57.989Z,21.73
2023-02-12T15:55:48.397Z,21.17
2023-02-12T15:58:41.821Z,22.48
2023-02-12T16:01:32.647Z,22.22
2023-02-12T16:04:20.838Z,22.25
2023-02-12T16:07:09.284Z,22.93
2023-02-12T16:09:57.506Z,29.52
2023-02-12T16:12:45.524Z,26.07
2023-02-12T16:15:35.339Z,30.68
2023-02-12T16:18:27.113Z,29.72
2023-02-12T16:21:23.953Z,27.90
2023-02-12T16:24:30.335Z,26.75
2023-02-12T16:27:23.856Z,34.53
2023-02-12T16:30:30.761Z,29.10
2023-02-12T16:33:44.137Z,32.08
2023-02-12T16:36:32.782Z,30.97
2023-02-12T16:39:35.320Z,34.98
2023-02-12T16:42:27.035Z,35.40
2023-02-12T16:45:34.117Z,36.20
2023-02-12T16:48:25.126Z,36.93
2023-02-12T16:51:24.875Z,36.23
2023-02-12T16:54:30.678Z,37.93
2023-02-12T16:57:18.380Z,34.95
2023-02-12T17:00:10.403Z,34.25
2023-02-12T17:02:58.605Z,25.37
2023-02-12T17:05:46.323Z,27.00
2023-02-12T17:08:36.384Z,27.40
2023-02-12T17:11:24.820Z,28.40
2023-02-12T17:14:18.180Z,24.43
2023-02-12T17:17:05.410Z,24.18
2023-02-12T17:19:53.288Z,23.65
2023-02-12T17:22:42.340Z,25.23
2023-02-12T17:25:30.261Z,26.00
2023-02-12T17:28:17.590Z,25.48
2023-02-12T17:31:07.117Z,26.77
2023-02-12T17:33:54.185Z,26.42
2023-02-12T17:36:41.628Z,30.43
2023-02-12T17:39:29.038Z,28.67
2023-02-12T17:42:16.856Z,28.20
2023-02-12T17:45:05.044Z,25.68
2023-02-12T17:47:52.314Z,26.85
2023-02-12T17:50:41.555Z,27.75
2023-02-12T17:53:28.412Z,31.75
2023-02-12T17:56:18.889Z,31.50
2023-02-12T17:59:06.393Z,30.20
2023-02-12T18:01:54.135Z,30.45
2023-02-12T18:04:41.636Z,27.00
2023-02-12T18:07:28.976Z,31.10
2023-02-12T18:10:16.345Z,25.43
2023-02-12T18:13:03.523Z,29.63
2023-02-12T18:15:51.501Z,32.30
2023-02-12T18:18:41.518Z,28.80
2023-02-12T18:21:28.552Z,26.00
2023-02-12T18:24:15.879Z,29.70
2023-02-12T18:27:04.962Z,27.37
2023-02-12T18:29:52.337Z,25.02
2023-02-12T18:32:39.508Z,27.10
2023-02-12T18:35:26.797Z,26.15
2023-02-12T18:38:14.305Z,23.75
2023-02-12T18:41:03.319Z,26.80
2023-02-12T18:43:50.712Z,24.40
2023-02-12T18:46:38.130Z,25.62
2023-02-12T18:49:26.623Z,21.95
2023-02-12T18:52:13.914Z,22.30
2023-02-12T18:55:01.307Z,24.70
2023-02-12T18:57:48.562Z,25.75
2023-02-12T19:00:36.472Z,24.25
2023-02-12T19:03:25.069Z,24.87
2023-02-12T19:06:12.697Z,23.83
2023-02-12T19:09:03.149Z,25.35
2023-02-12T19:11:51.502Z,20.20
2023-02-12T19:14:38.823Z,20.30
2023-02-12T19:17:26.065Z,24.63
2023-02-12T19:20:14.967Z,25.17
2023-02-12T19:23:02.401Z,20.50
2023-02-12T19:25:50.033Z,20.37
2023-02-12T19:28:39.674Z,21.80
2023-02-12T19:31:30.238Z,21.00
2023-02-12T19:34:24.758Z,16.17
2023-02-12T19:37:13.802Z,18.05
2023-02-12T19:40:03.822Z,17.98
2023-02-12T19:42:51.466Z,17.20
2023-02-12T19:45:38.815Z,18.95
2023-02-12T19:48:26.060Z,19.07
2023-02-12T19:51:18.298Z,22.52
2023-02-12T19:54:10.448Z,18.75
2023-02-12T19:56:57.958Z,20.40
2023-02-12T19:59:46.464Z,19.25
2023-02-12T20:02:33.812Z,16.27
2023-02-12T20:05:21.074Z,16.60
2023-02-12T20:08:08.645Z,16.35
2023-02-12T20:10:56.595Z,16.75
2023-02-12T20:13:44.585Z,13.80
2023-02-12T20:16:36.822Z,16.42
2023-02-12T20:19:26.003Z,15.05
2023-02-12T20:22:13.455Z,17.65
2023-02-12T20:25:00.923Z,16.07
2023-02-12T20:27:48.332Z,14.40
2023-02-12T20:30:35.515Z,13.90
2023-02-12T20:33:22.816Z,13.60
2023-02-12T20:36:12.701Z,16.20
2023-02-12T20:39:00.182Z,16.15
2023-02-12T20:41:48.340Z,14.55
2023-02-12T20:44:35.687Z,17.50
2023-02-12T20:47:24.716Z,16.12
2023-02-12T20:50:11.825Z,16.50
2023-02-12T20:52:59.825Z,16.57
2023-02-12T20:55:47.111Z,17.67
2023-02-12T20:58:35.067Z,13.65
2023-02-12T21:01:25.790Z,15.78
2023-02-12T21:04:16.650Z,13.18
2023-02-12T21:07:04.255Z,16.90
2023-02-12T21:09:51.909Z,14.23
2023-02-12T21:12:39.465Z,17.25
2023-02-12T21:15:27.045Z,15.58
2023-02-12T21:18:14.662Z,14.28
2023-02-12T21:21:03.980Z,14.07
2023-02-12T21:23:54.919Z,16.48
2023-02-12T21:26:41.925Z,16.55
2023-02-12T21:29:31.138Z,15.75
2023-02-12T21:32:18.719Z,15.23
2023-02-12T21:35:06.296Z,14.80
2023-02-12T21:37:53.518Z,16.07
2023-02-12T21:40:40.473Z,15.95
2023-02-12T21:43:27.863Z,18.73
2023-02-12T21:46:15.996Z,20.05
2023-02-12T21:49:04.538Z,18.77
2023-02-12T21:51:54.068Z,19.32
2023-02-12T21:54:41.529Z,19.98
2023-02-12T21:57:28.873Z,19.87
2023-02-12T22:00:17.032Z,18.77
2023-02-12T22:03:04.300Z,18.32
2023-02-12T22:05:51.801Z,20.40
2023-02-12T22:08:39.634Z,25.57
2023-02-12T22:11:27.198Z,20.52
2023-02-12T22:14:16.469Z,17.15
2023-02-12T22:17:03.932Z,18.35
2023-02-12T22:19:51.506Z,17.60
2023-02-12T22:22:39.120Z,18.42
2023-02-12T22:25:27.973Z,19.75
2023-02-12T22:28:15.101Z,19.20
2023-02-12T22:31:07.858Z,22.70
2023-02-12T22:33:58.112Z,19.85
2023-02-12T22:36:46.508Z,17.87
2023-02-12T22:39:33.717Z,19.50
2023-02-12T22:42:20.973Z,19.98
2023-02-12T22:45:09.103Z,19.07
2023-02-12T22:47:56.502Z,18.80
2023-02-12T22:50:43.601Z,19.10
2023-02-12T22:53:30.950Z,20.35
2023-02-12T22:56:18.734Z,21.60
2023-02-12T22:59:06.147Z,18.80
2023-02-12T23:01:53.478Z,17.82
2023-02-12T23:04:41.036Z,17.48
2023-02-12T23:07:28.520Z,19.27
2023-02-12T23:10:15.828Z,19.02
2023-02-12T23:13:04.389Z,19.77
2023-02-12T23:15:51.665Z,20.80
2023-02-12T23:18:39.193Z,19.48
2023-02-12T23:21:27.324Z,19.25
2023-02-12T23:24:15.396Z,19.30
2023-02-12T23:27:02.799Z,20.40
2023-02-12T23:29:50.474Z,17.05
2023-02-12T23:32:39.294Z,17.62
2023-02-12T23:35:27.408Z,19.60
2023-02-12T23:38:15.384Z,18.45
2023-02-12T23:41:02.915Z,16.20
2023-02-12T23:43:50.056Z,16.40
2023-02-12T23:46:37.727Z,16.52
2023-02-12T23:49:25.637Z,16.95
2023-02-12T23:52:13.137Z,16.90
2023-02-12T23:55:00.641Z,20.23
2023-02-12T23:57:49.640Z,17.17
